Terminal Aerodrome Forecast
Issued by NWS

Home | Current Version | Previous Version | Text Only | Print | Product List | Glossary On
Versions: 1 2 3 4 5 6 7 8 9 10 11 12
000
FTUS44 KBMX 162340
TAFTOI
TAF
KTOI 162340Z 1700/1724 11003KT P6SM SCT150 BKN250
     FM171400 11004KT P6SM OVC040
     FM171900 13006KT 4SM -RA BR OVC025
     FM172100 15006KT 4SM -RA BR OVC015=

USA.gov is the U.S. government's official web portal to all federal, state and local government web resources and services.